Time;durP1;ratioP1;P1;durP2;ratioP2;P2;SDS_P1;SDS_P2;PMS_P1;PMS_P2;Temp;Humidity;BMP_temperature;BMP_pressure;BME280_temperature;BME280_humidity;BME280_pressure;Samples;Min_cycle;Max_cycle;Signal;HPM_P1;HPM_P2
2024/01/13 00:01:19;;;;;;;25.00;11.35;;;;;;;6.30;61.77;102829.31;4908237;28;114557;-70
2024/01/13 00:03:46;;;;;;;24.48;10.82;;;;;;;6.30;61.74;102824.06;4911556;28;114379;-70
2024/01/13 00:06:13;;;;;;;23.00;10.95;;;;;;;6.29;61.84;102819.69;4892331;28;125069;-71
2024/01/13 00:08:47;;;;;;;20.73;10.85;;;;;;;6.29;61.72;102822.31;4902007;28;124679;-70
2024/01/13 00:11:14;;;;;;;23.23;10.90;;;;;;;6.29;61.93;102818.78;4894635;28;113232;-70
2024/01/13 00:13:43;;;;;;;20.40;10.50;;;;;;;6.29;61.58;102822.31;4896480;28;113259;-70
2024/01/13 00:16:10;;;;;;;24.27;11.85;;;;;;;6.30;61.73;102813.53;4912497;28;123871;-70
2024/01/13 00:18:38;;;;;;;23.60;10.95;;;;;;;6.30;62.00;102813.53;4897029;28;124133;-71
2024/01/13 00:21:08;;;;;;;25.58;11.48;;;;;;;6.30;61.79;102810.88;4913389;28;114856;-70
2024/01/13 00:23:36;;;;;;;30.08;12.20;;;;;;;6.30;61.95;102808.25;4911845;28;114325;-70
2024/01/13 00:26:04;;;;;;;24.30;11.63;;;;;;;6.29;61.90;102806.53;4908262;28;123783;-70
2024/01/13 00:28:33;;;;;;;26.38;11.75;;;;;;;6.28;61.87;102799.47;4893866;28;123067;-70
2024/01/13 00:31:04;;;;;;;26.67;11.63;;;;;;;6.27;62.13;102802.97;4900668;28;115192;-70
2024/01/13 00:33:33;;;;;;;30.02;11.88;;;;;;;6.27;61.69;102797.72;4911657;28;115144;-70
2024/01/13 00:36:01;;;;;;;27.17;12.15;;;;;;;6.27;62.13;102797.72;4891096;28;123838;-70
2024/01/13 00:38:28;;;;;;;29.25;12.73;;;;;;;6.27;62.11;102792.44;4896435;28;123948;-70
2024/01/13 00:41:04;;;;;;;25.33;12.27;;;;;;;6.27;62.09;102787.19;4909320;28;115258;-70
2024/01/13 00:43:34;;;;;;;25.08;12.00;;;;;;;6.27;61.95;102786.31;4897005;28;114267;-70
2024/01/13 00:46:02;;;;;;;26.83;11.98;;;;;;;6.28;62.23;102788.97;4909168;28;124262;-70
2024/01/13 00:48:30;;;;;;;23.40;12.25;;;;;;;6.29;62.27;102785.47;4913631;28;123727;-70
2024/01/13 00:51:09;;;;;;;26.33;12.38;;;;;;;6.30;61.97;102787.22;4911944;28;113753;-70
2024/01/13 00:53:38;;;;;;;25.35;12.50;;;;;;;6.32;62.13;102784.59;4913457;28;114279;-70
2024/01/13 00:56:06;;;;;;;23.67;12.65;;;;;;;6.32;62.22;102787.22;4909692;28;123859;-70
2024/01/13 00:58:36;;;;;;;25.98;12.63;;;;;;;6.33;62.36;102786.31;4896195;28;122861;-70
2024/01/13 01:01:14;;;;;;;26.90;12.77;;;;;;;6.32;62.40;102780.19;4907721;28;114800;-70
2024/01/13 01:03:45;;;;;;;29.00;13.18;;;;;;;6.35;62.13;102779.34;4910534;28;114148;-70
2024/01/13 01:06:15;;;;;;;29.75;13.15;;;;;;;6.36;62.11;102774.06;4882862;28;123976;-70
2024/01/13 01:08:42;;;;;;;26.23;13.00;;;;;;;6.36;61.93;102760.91;4907313;28;123863;-70
2024/01/13 01:11:10;;;;;;;29.52;13.68;;;;;;;6.36;62.31;102763.53;4902720;28;114160;-70
2024/01/13 01:13:39;;;;;;;29.45;12.93;;;;;;;6.38;62.06;102764.41;4908507;28;114102;-70
2024/01/13 01:16:07;;;;;;;30.00;13.40;;;;;;;6.38;62.15;102758.28;4906205;28;123785;-70
2024/01/13 01:18:35;;;;;;;30.95;13.85;;;;;;;6.38;61.99;102753.91;4889494;28;123827;-70
2024/01/13 01:21:13;;;;;;;29.80;12.98;;;;;;;6.39;62.03;102749.53;4902535;28;115339;-70
2024/01/13 01:23:43;;;;;;;27.15;12.88;;;;;;;6.39;62.18;102750.41;4887736;28;113850;-70
2024/01/13 01:26:11;;;;;;;30.83;13.20;;;;;;;6.40;61.98;102741.66;4904153;28;125113;-70
2024/01/13 01:28:38;;;;;;;30.20;13.82;;;;;;;6.39;62.11;102739.00;4894275;28;123309;-70
2024/01/13 01:31:06;;;;;;;29.10;12.80;;;;;;;6.39;62.20;102734.63;4908891;28;114652;-70
2024/01/13 01:33:35;;;;;;;35.10;13.55;;;;;;;6.38;62.16;102738.09;4895891;28;113153;-70
2024/01/13 01:36:04;;;;;;;30.55;13.73;;;;;;;6.38;62.16;102743.38;4895961;28;122869;-70
2024/01/13 01:38:31;;;;;;;33.25;13.60;;;;;;;6.37;62.08;102735.50;4903806;28;122861;-71
2024/01/13 01:41:13;;;;;;;33.05;14.48;;;;;;;6.37;61.92;102740.75;4888560;28;113174;-70
2024/01/13 01:43:43;;;;;;;32.60;13.52;;;;;;;6.36;62.22;102739.84;4909253;28;114315;-70
2024/01/13 01:46:16;;;;;;;30.92;14.05;;;;;;;6.35;62.20;102738.13;4906823;28;123865;-70
2024/01/13 01:48:46;;;;;;;29.53;14.40;;;;;;;6.34;62.23;102741.59;4906577;28;123785;-70
2024/01/13 01:51:15;;;;;;;33.63;14.40;;;;;;;6.34;62.08;102736.34;4912885;28;114259;-70
2024/01/13 01:53:44;;;;;;;31.15;13.82;;;;;;;6.35;62.17;102734.63;4911758;28;114593;-71
2024/01/13 01:56:14;;;;;;;29.40;13.48;;;;;;;6.34;62.62;102741.59;4876691;28;123858;-70
2024/01/13 01:58:43;;;;;;;26.83;13.95;;;;;;;6.34;62.29;102730.22;4901464;28;124223;-70
2024/01/13 02:01:12;;;;;;;28.88;13.30;;;;;;;6.33;62.56;102729.34;4895443;28;113316;-70
2024/01/13 02:03:40;;;;;;;27.50;13.15;;;;;;;6.33;62.64;102734.59;4895705;28;112916;-70
2024/01/13 02:06:08;;;;;;;29.40;13.40;;;;;;;6.33;62.25;102729.34;4912986;28;123343;-70
2024/01/13 02:08:36;;;;;;;26.70;12.77;;;;;;;6.34;62.51;102725.81;4899306;28;123915;-70
2024/01/13 02:11:12;;;;;;;26.55;12.30;;;;;;;6.36;62.53;102723.19;4905144;28;115284;-70
2024/01/13 02:13:44;;;;;;;25.80;12.70;;;;;;;6.36;62.28;102712.66;4905584;28;114994;-71
2024/01/13 02:16:13;;;;;;;22.45;12.05;;;;;;;6.36;62.38;102713.53;4912667;28;124066;-70
2024/01/13 02:18:43;;;;;;;21.83;11.63;;;;;;;6.36;62.56;102712.66;4910919;28;124401;-70
2024/01/13 02:21:12;;;;;;;28.25;12.30;;;;;;;6.37;62.34;102714.44;4908501;28;114238;-70
2024/01/13 02:23:42;;;;;;;23.67;11.45;;;;;;;6.38;62.37;102710.91;4912342;28;114071;-71
2024/01/13 02:26:10;;;;;;;20.50;10.98;;;;;;;6.37;62.32;102699.53;4904193;28;123969;-70
2024/01/13 02:28:39;;;;;;;19.42;10.63;;;;;;;6.37;62.49;102710.03;4912536;28;124726;-70
2024/01/13 02:31:15;;;;;;;19.63;10.68;;;;;;;6.36;62.67;102708.28;4904407;28;113434;-71
2024/01/13 02:33:50;;;;;;;22.20;11.23;;;;;;;6.36;62.46;102703.00;4906463;28;113936;-70
2024/01/13 02:36:21;;;;;;;21.77;11.10;;;;;;;6.36;62.40;102687.22;4893118;28;123728;-70
2024/01/13 02:38:49;;;;;;;22.63;10.50;;;;;;;6.38;62.54;102685.47;4907471;28;123618;-70
2024/01/13 02:41:16;;;;;;;19.38;10.25;;;;;;;6.37;62.29;102662.69;4908054;28;114706;-70
2024/01/13 02:43:45;;;;;;;26.10;11.85;;;;;;;6.37;62.39;102660.03;4905912;28;114137;-70
2024/01/13 02:46:12;;;;;;;22.52;11.18;;;;;;;6.37;62.63;102657.41;4902530;28;124089;-70
2024/01/13 02:48:43;;;;;;;22.90;11.55;;;;;;;6.38;62.66;102659.16;4906895;28;123754;-70
2024/01/13 02:51:14;;;;;;;25.88;11.98;;;;;;;6.39;62.39;102654.78;4903470;28;114134;-70
2024/01/13 02:53:43;;;;;;;27.63;11.77;;;;;;;6.39;62.47;102650.41;4902824;28;114432;-70
2024/01/13 02:56:12;;;;;;;26.58;11.73;;;;;;;6.38;62.17;102638.09;4907775;28;124822;-70
2024/01/13 02:58:39;;;;;;;24.55;12.93;;;;;;;6.36;62.44;102634.59;4910112;28;123759;-70
2024/01/13 03:01:13;;;;;;;22.42;11.60;;;;;;;6.35;62.10;102635.47;4894435;28;114214;-70
2024/01/13 03:03:42;;;;;;;21.25;11.15;;;;;;;6.33;62.25;102634.59;4912273;28;115065;-70
2024/01/13 03:06:11;;;;;;;20.45;10.52;;;;;;;6.32;62.56;102627.56;4888500;28;123475;-70
2024/01/13 03:08:40;;;;;;;18.92;9.88;;;;;;;6.30;62.47;102618.81;4908041;28;124422;-70
2024/01/13 03:11:11;;;;;;;20.15;10.50;;;;;;;6.30;62.61;102624.06;4886721;28;113304;-70
2024/01/13 03:13:40;;;;;;;23.48;10.82;;;;;;;6.29;62.16;102616.16;4902145;28;114649;-70
2024/01/13 03:16:07;;;;;;;18.38;9.70;;;;;;;6.28;62.49;102619.69;4884249;28;126571;-70
2024/01/13 03:18:35;;;;;;;23.67;10.20;;;;;;;6.25;62.35;102620.53;4911671;28;124058;-70
2024/01/13 03:21:11;;;;;;;21.33;10.77;;;;;;;6.24;62.55;102613.53;4892192;28;114322;-70
2024/01/13 03:23:42;;;;;;;21.77;11.02;;;;;;;6.23;62.37;102617.03;4905958;28;114205;-70
2024/01/13 03:26:13;;;;;;;24.55;11.23;;;;;;;6.23;62.46;102611.75;4890459;28;123185;-70
2024/01/13 03:28:42;;;;;;;20.08;11.50;;;;;;;6.21;62.11;102603.00;4908929;28;124348;-70
2024/01/13 03:31:12;;;;;;;21.80;11.20;;;;;;;6.21;62.24;102593.34;4909375;28;115519;-70
2024/01/13 03:33:44;;;;;;;21.60;11.32;;;;;;;6.20;62.29;102580.22;4908958;28;114020;-70
2024/01/13 03:36:12;;;;;;;24.13;10.95;;;;;;;6.18;62.29;102587.22;4884801;28;124120;-70
2024/01/13 03:38:39;;;;;;;29.70;11.70;;;;;;;6.18;62.25;102590.72;4897426;28;123971;-70
2024/01/13 03:41:15;;;;;;;20.90;11.75;;;;;;;6.16;62.26;102584.59;4907627;28;115600;-70
2024/01/13 03:43:44;;;;;;;19.75;11.32;;;;;;;6.17;62.54;102585.47;4912483;28;115090;-70
2024/01/13 03:46:13;;;;;;;21.40;11.48;;;;;;;6.16;62.33;102583.69;4903314;28;124139;-70
2024/01/13 03:48:40;;;;;;;23.98;11.55;;;;;;;6.17;62.37;102585.47;4908572;28;124775;-70
2024/01/13 03:51:10;;;;;;;20.23;11.73;;;;;;;6.18;62.70;102574.06;4908581;28;115198;-70
2024/01/13 03:53:38;;;;;;;21.17;11.80;;;;;;;6.17;62.44;102564.41;4893463;28;115662;-70
2024/01/13 03:56:05;;;;;;;21.42;11.43;;;;;;;6.17;62.72;102556.53;4897311;28;123039;-70
2024/01/13 03:58:35;;;;;;;19.23;11.48;;;;;;;6.18;62.58;102555.66;4892952;28;123185;-70
2024/01/13 04:01:03;;;;;;;19.85;11.25;;;;;;;6.18;62.38;102555.66;4912372;28;115038;-70
2024/01/13 04:03:31;;;;;;;19.13;11.35;;;;;;;6.19;62.62;102552.13;4897222;28;113057;-70
2024/01/13 04:06:03;;;;;;;21.85;12.05;;;;;;;6.20;62.68;102548.63;4908864;28;124678;-70
2024/01/13 04:08:32;;;;;;;22.63;11.75;;;;;;;6.21;62.41;102539.84;4910848;28;123427;-70
2024/01/13 04:11:04;;;;;;;22.15;11.60;;;;;;;6.22;62.49;102546.88;4911127;28;114266;-70
2024/01/13 04:13:32;;;;;;;22.25;11.80;;;;;;;6.23;62.69;102543.34;4909667;28;114121;-70
2024/01/13 04:15:59;;;;;;;23.55;11.20;;;;;;;6.24;62.61;102529.34;4897081;28;123151;-70
2024/01/13 04:18:27;;;;;;;20.63;11.85;;;;;;;6.22;62.70;102531.09;4913238;28;124392;-70
2024/01/13 04:20:55;;;;;;;20.00;11.43;;;;;;;6.23;62.55;102535.47;4914202;28;114301;-70
2024/01/13 04:23:38;;;;;;;22.50;11.73;;;;;;;6.24;62.54;102534.59;4914701;28;114388;-70
2024/01/13 04:26:06;;;;;;;17.80;10.70;;;;;;;6.23;62.56;102538.09;4914400;28;124100;-70
2024/01/13 04:28:34;;;;;;;20.38;12.00;;;;;;;6.24;62.58;102524.09;4870018;28;123195;-70
2024/01/13 04:31:02;;;;;;;20.25;11.57;;;;;;;6.25;62.48;102523.19;4913388;28;114326;-70
2024/01/13 04:33:29;;;;;;;17.38;11.00;;;;;;;6.24;62.59;102524.94;4912231;28;114373;-70
2024/01/13 04:35:56;;;;;;;21.52;10.90;;;;;;;6.24;62.38;102524.09;4895003;28;123215;-70
2024/01/13 04:38:26;;;;;;;18.63;11.63;;;;;;;6.23;62.73;102522.31;4913081;28;124689;-70
2024/01/13 04:40:53;;;;;;;18.83;11.10;;;;;;;6.24;62.86;102529.34;4896539;28;114581;-70
2024/01/13 04:43:21;;;;;;;18.92;10.45;;;;;;;6.27;62.45;102529.31;4911561;28;115187;-70
2024/01/13 04:45:49;;;;;;;18.67;10.95;;;;;;;6.26;62.34;102527.59;4896205;28;124058;-70
2024/01/13 04:48:17;;;;;;;15.85;10.18;;;;;;;6.27;62.75;102524.06;4888815;28;124145;-70
2024/01/13 04:50:45;;;;;;;17.90;10.50;;;;;;;6.28;62.65;102520.56;4893189;28;114436;-70
2024/01/13 04:53:12;;;;;;;15.23;9.55;;;;;;;6.29;62.46;102511.81;4890970;28;113322;-70
2024/01/13 04:55:39;;;;;;;16.00;9.50;;;;;;;6.31;62.53;102514.41;4896510;28;124010;-70
2024/01/13 04:58:06;;;;;;;18.10;9.50;;;;;;;6.30;62.49;102507.41;4911251;28;123902;-70
2024/01/13 05:00:35;;;;;;;16.35;9.57;;;;;;;6.30;62.58;102513.53;4913012;28;114696;-70
2024/01/13 05:03:02;;;;;;;14.93;9.05;;;;;;;6.30;62.72;102510.03;4910453;28;114306;-70
2024/01/13 05:05:30;;;;;;;12.60;8.27;;;;;;;6.30;62.63;102508.28;4910826;28;124201;-70
2024/01/13 05:07:58;;;;;;;15.80;8.23;;;;;;;6.32;62.43;102516.19;4891037;28;123945;-69
2024/01/13 05:10:27;;;;;;;14.75;8.05;;;;;;;6.33;62.59;102516.19;4906009;28;114623;-70
2024/01/13 05:12:54;;;;;;;12.60;7.57;;;;;;;6.34;62.76;102517.06;4891618;28;112874;-70
2024/01/13 05:15:22;;;;;;;11.55;7.50;;;;;;;6.34;62.59;102520.56;4902983;28;124521;-69
2024/01/13 05:17:49;;;;;;;10.98;6.80;;;;;;;6.34;62.34;102517.94;4903360;28;124292;-70
2024/01/13 05:20:17;;;;;;;12.98;7.05;;;;;;;6.35;62.51;102514.44;4906459;28;114309;-70
2024/01/13 05:22:44;;;;;;;11.02;6.63;;;;;;;6.35;62.46;102511.81;4896940;28;114063;-70
2024/01/13 05:25:14;;;;;;;10.48;6.38;;;;;;;6.35;62.92;102517.06;4909754;28;124040;-70
2024/01/13 05:27:41;;;;;;;10.15;5.75;;;;;;;6.36;62.30;102513.53;4909513;28;123777;-70
2024/01/13 05:30:09;;;;;;;8.50;5.72;;;;;;;6.38;62.45;102509.16;4911761;28;115983;-70
2024/01/13 05:32:39;;;;;;;9.23;5.57;;;;;;;6.39;62.85;102503.03;4912663;28;114761;-70
2024/01/13 05:35:07;;;;;;;9.55;5.07;;;;;;;6.40;62.72;102498.63;4895809;28;123315;-70
2024/01/13 05:37:35;;;;;;;8.70;5.25;;;;;;;6.42;62.88;102502.13;4911142;28;123910;-70
2024/01/13 05:40:05;;;;;;;8.20;5.05;;;;;;;6.46;62.61;102503.00;4905478;28;113329;-70
2024/01/13 05:42:32;;;;;;;7.20;4.60;;;;;;;6.46;62.81;102500.38;4910725;28;114290;-69
2024/01/13 05:45:00;;;;;;;8.15;4.47;;;;;;;6.47;62.73;102495.13;4877012;28;123067;-69
2024/01/13 05:47:27;;;;;;;7.75;4.80;;;;;;;6.49;62.86;102492.50;4885374;28;124224;-69
2024/01/13 05:49:55;;;;;;;6.80;4.22;;;;;;;6.49;62.54;102492.50;4896845;28;113765;-69
2024/01/13 05:52:23;;;;;;;9.00;4.78;;;;;;;6.49;62.49;102492.50;4911138;28;114324;-69
2024/01/13 05:54:50;;;;;;;7.72;4.85;;;;;;;6.50;62.66;102499.47;4891909;28;124096;-69
2024/01/13 05:57:18;;;;;;;8.45;4.72;;;;;;;6.51;62.59;102490.72;4902463;28;123994;-69
2024/01/13 05:59:46;;;;;;;7.43;4.57;;;;;;;6.52;62.89;102489.88;4911197;28;115156;-69
2024/01/13 06:02:14;;;;;;;8.38;4.70;;;;;;;6.51;62.56;102490.72;4911215;28;113815;-69
2024/01/13 06:04:42;;;;;;;8.48;4.53;;;;;;;6.53;62.82;102499.50;4911868;28;123993;-69
2024/01/13 06:07:10;;;;;;;8.48;5.28;;;;;;;6.51;62.74;102496.84;4895099;28;124044;-69
2024/01/13 06:09:39;;;;;;;9.15;5.25;;;;;;;6.52;62.64;102492.50;4913755;28;114226;-69
2024/01/13 06:12:07;;;;;;;8.48;5.47;;;;;;;6.53;62.84;102486.34;4897919;28;113920;-69
2024/01/13 06:14:35;;;;;;;11.15;6.28;;;;;;;6.53;62.70;102478.44;4902733;28;124216;-69
2024/01/13 06:17:02;;;;;;;9.98;5.95;;;;;;;6.53;62.71;102473.16;4901417;28;124477;-70
2024/01/13 06:19:29;;;;;;;11.25;6.18;;;;;;;6.52;63.09;102466.16;4895802;28;114032;-69
2024/01/13 06:21:57;;;;;;;11.07;6.63;;;;;;;6.52;62.82;102451.25;4908787;28;114977;-69
2024/01/13 06:24:24;;;;;;;14.40;7.10;;;;;;;6.52;63.07;102445.13;4910422;28;123841;-70
2024/01/13 06:26:52;;;;;;;13.40;7.30;;;;;;;6.53;62.88;102446.84;4908190;28;123779;-69
2024/01/13 06:29:19;;;;;;;14.55;8.18;;;;;;;6.52;63.10;102445.13;4906527;28;115462;-69
2024/01/13 06:31:48;;;;;;;13.15;7.75;;;;;;;6.52;63.17;102434.59;4910942;28;113899;-69
2024/01/13 06:34:15;;;;;;;15.63;9.35;;;;;;;6.51;62.82;102443.34;4909833;28;123937;-69
2024/01/13 06:36:43;;;;;;;18.58;10.10;;;;;;;6.51;63.21;102449.47;4901610;28;124174;-69
2024/01/13 06:39:11;;;;;;;19.15;9.75;;;;;;;6.52;63.09;102453.00;4902301;28;114461;-69
2024/01/13 06:41:39;;;;;;;19.05;10.95;;;;;;;6.51;63.23;102460.00;4910025;28;114435;-69
2024/01/13 06:44:06;;;;;;;16.77;10.55;;;;;;;6.52;63.17;102445.13;4910054;28;124469;-69
2024/01/13 06:46:33;;;;;;;19.58;11.35;;;;;;;6.53;62.96;102436.31;4892240;28;122461;-69
2024/01/13 06:49:00;;;;;;;23.50;12.10;;;;;;;6.53;63.03;102441.59;4901375;28;114138;-69
2024/01/13 06:51:28;;;;;;;21.95;12.48;;;;;;;6.53;63.28;102433.69;4889292;28;112912;-69
2024/01/13 06:53:55;;;;;;;20.77;11.95;;;;;;;6.54;63.22;102417.03;4886830;28;124312;-69
2024/01/13 06:56:23;;;;;;;24.02;13.10;;;;;;;6.54;63.31;102411.75;4893330;28;123998;-69
2024/01/13 06:58:50;;;;;;;25.65;13.05;;;;;;;6.53;63.24;102404.72;4907110;28;114371;-69
2024/01/13 07:01:17;;;;;;;23.33;13.45;;;;;;;6.54;63.37;102398.59;4911532;28;114076;-69
2024/01/13 07:03:45;;;;;;;25.50;14.40;;;;;;;6.53;63.28;102379.28;4878776;28;123293;-69
2024/01/13 07:06:12;;;;;;;26.48;14.13;;;;;;;6.53;62.91;102378.41;4905672;28;124277;-69
2024/01/13 07:08:43;;;;;;;26.75;14.35;;;;;;;6.53;63.21;102373.16;4906762;28;114358;-68
2024/01/13 07:11:13;;;;;;;27.60;13.65;;;;;;;6.53;62.96;102370.50;4910495;28;114888;-69
2024/01/13 07:13:44;;;;;;;28.98;14.95;;;;;;;6.52;63.28;102360.88;4911828;28;124242;-68
2024/01/13 07:16:12;;;;;;;22.40;10.07;;;;;;;6.52;63.34;102355.63;4891124;28;124115;-68
2024/01/13 07:18:39;;;;;;;18.65;8.63;;;;;;;6.52;63.40;102360.88;4911458;28;113766;-68
2024/01/13 07:21:07;;;;;;;18.52;8.95;;;;;;;6.53;62.79;102378.41;4891688;28;113850;-69
2024/01/13 07:23:34;;;;;;;19.95;9.15;;;;;;;6.52;63.02;102387.22;4908871;28;124039;-69
2024/01/13 07:26:02;;;;;;;16.67;8.50;;;;;;;6.55;63.33;102376.66;4909477;28;124139;-69
2024/01/13 07:28:30;;;;;;;20.50;9.10;;;;;;;6.56;63.03;102375.78;4894956;28;113330;-68
2024/01/13 07:30:58;;;;;;;18.70;8.60;;;;;;;6.56;63.05;102373.16;4894554;28;113757;-68
2024/01/13 07:33:26;;;;;;;18.70;9.20;;;;;;;6.56;62.92;102373.16;4893636;28;123945;-68
2024/01/13 07:35:54;;;;;;;18.77;9.07;;;;;;;6.57;62.90;102377.50;4893456;28;124390;-68
2024/01/13 07:38:21;;;;;;;20.50;9.57;;;;;;;6.56;63.16;102376.66;4911151;28;113756;-68
2024/01/13 07:40:48;;;;;;;20.17;9.65;;;;;;;6.57;63.10;102359.09;4908740;28;113944;-68
2024/01/13 07:43:15;;;;;;;18.98;8.77;;;;;;;6.57;62.69;102360.00;4889441;28;124398;-68
2024/01/13 07:45:43;;;;;;;18.48;9.18;;;;;;;6.57;63.02;102351.19;4901362;28;123963;-68
2024/01/13 07:48:10;;;;;;;18.73;9.50;;;;;;;6.58;62.71;102342.44;4910454;28;114055;-68
2024/01/13 07:50:38;;;;;;;21.50;9.55;;;;;;;6.58;62.69;102347.69;4891289;28;113861;-69
2024/01/13 07:53:05;;;;;;;19.83;9.45;;;;;;;6.57;63.00;102338.94;4909240;28;124070;-67
2024/01/13 07:55:32;;;;;;;22.08;11.25;;;;;;;6.58;62.76;102355.59;4905582;28;123775;-67
2024/01/13 07:58:00;;;;;;;21.77;12.52;;;;;;;6.58;62.98;102350.31;4898283;28;114268;-67
2024/01/13 08:00:27;;;;;;;24.35;11.98;;;;;;;6.58;62.61;102345.94;4892514;28;115581;-67
2024/01/13 08:02:55;;;;;;;21.92;11.73;;;;;;;6.60;62.80;102324.88;4892681;28;122519;-67
2024/01/13 08:05:22;;;;;;;23.77;11.93;;;;;;;6.62;62.82;102323.09;4901584;28;124626;-67
2024/01/13 08:07:49;;;;;;;25.85;12.18;;;;;;;6.60;62.75;102322.22;4894503;28;113478;-67
2024/01/13 08:10:17;;;;;;;22.10;10.95;;;;;;;6.61;63.02;102321.34;4904117;28;114403;-67
2024/01/13 08:12:46;;;;;;;25.00;11.68;;;;;;;6.60;63.15;102322.22;4901215;28;124029;-68
2024/01/13 08:15:14;;;;;;;23.75;11.52;;;;;;;6.62;62.96;102320.47;4909461;28;124352;-67
2024/01/13 08:17:41;;;;;;;24.35;11.90;;;;;;;6.63;62.79;102311.69;4874961;28;113268;-67
2024/01/13 08:20:09;;;;;;;25.02;11.50;;;;;;;6.61;62.81;102301.16;4897221;28;114544;-68
2024/01/13 08:22:37;;;;;;;23.67;11.35;;;;;;;6.63;62.89;102311.69;4897832;28;123066;-67
2024/01/13 08:25:04;;;;;;;23.88;12.18;;;;;;;6.62;62.74;102315.19;4904883;28;123315;-67
2024/01/13 08:27:31;;;;;;;25.25;12.93;;;;;;;6.63;63.19;102309.06;4893560;28;113697;-67
2024/01/13 08:29:59;;;;;;;23.98;12.20;;;;;;;6.63;62.98;102303.81;4893634;28;113586;-67
2024/01/13 08:32:27;;;;;;;25.63;13.13;;;;;;;6.63;62.84;102293.28;4904448;28;123759;-67
2024/01/13 08:34:55;;;;;;;26.27;12.82;;;;;;;6.62;63.11;102300.28;4904841;28;124197;-67
2024/01/13 08:37:22;;;;;;;25.30;12.18;;;;;;;6.63;63.30;102311.69;4910638;28;113929;-67
2024/01/13 08:39:49;;;;;;;27.80;12.48;;;;;;;6.62;62.82;102325.72;4914636;28;113876;-67
2024/01/13 08:42:17;;;;;;;25.55;12.68;;;;;;;6.65;63.00;102319.56;4901507;28;124939;-67
2024/01/13 08:44:44;;;;;;;25.15;12.20;;;;;;;6.65;62.90;102325.72;4903965;28;124703;-67
2024/01/13 08:47:12;;;;;;;26.98;12.75;;;;;;;6.66;63.06;102327.47;4900177;28;115480;-67
2024/01/13 08:49:39;;;;;;;26.60;12.35;;;;;;;6.68;62.71;102320.44;4914146;28;114584;-67
2024/01/13 08:52:09;;;;;;;23.95;12.15;;;;;;;6.68;62.76;102325.69;4893443;28;124135;-67
2024/01/13 08:54:36;;;;;;;26.15;12.52;;;;;;;6.68;62.81;102315.16;4896823;28;123663;-67
2024/01/13 08:57:04;;;;;;;26.08;12.85;;;;;;;6.70;62.82;102316.03;4909775;28;114395;-67
2024/01/13 08:59:33;;;;;;;28.25;13.57;;;;;;;6.70;62.79;102308.13;4895179;28;113374;-67
2024/01/13 09:02:00;;;;;;;27.92;13.13;;;;;;;6.70;62.88;102310.75;4890758;28;123720;-67
2024/01/13 09:04:28;;;;;;;27.00;13.23;;;;;;;6.69;62.90;102311.66;4914177;28;124242;-67
2024/01/13 09:06:55;;;;;;;30.00;14.10;;;;;;;6.68;62.80;102315.16;4885870;28;114215;-67
2024/01/13 09:09:24;;;;;;;28.25;13.15;;;;;;;6.68;62.89;102303.75;4897649;28;114246;-67
2024/01/13 09:11:52;;;;;;;28.25;13.73;;;;;;;6.68;62.89;102315.16;4895607;28;124637;-67
2024/01/13 09:14:19;;;;;;;31.23;14.13;;;;;;;6.67;62.81;102308.16;4896777;28;124222;-67
2024/01/13 09:16:46;;;;;;;30.58;13.13;;;;;;;6.67;63.19;102307.25;4896082;28;114172;-67
2024/01/13 09:19:14;;;;;;;28.38;14.25;;;;;;;6.68;63.12;102309.91;4913676;28;115167;-66
2024/01/13 09:21:41;;;;;;;28.27;14.00;;;;;;;6.70;62.78;102308.13;4910023;28;123902;-67
2024/01/13 09:24:16;;;;;;;25.13;13.30;;;;;;;6.70;62.97;102307.25;4914341;28;123783;-66
2024/01/13 09:26:45;;;;;;;29.70;13.75;;;;;;;6.70;63.11;102305.50;4891356;28;115120;-66
2024/01/13 09:29:19;;;;;;;27.52;13.23;;;;;;;6.71;62.82;102307.25;4907657;28;114069;-67
2024/01/13 09:31:49;;;;;;;28.60;13.80;;;;;;;6.71;62.82;102304.63;4890469;28;123866;-67
2024/01/13 09:34:19;;;;;;;27.80;13.55;;;;;;;6.71;62.73;102304.63;4908936;28;124250;-67
2024/01/13 09:36:47;;;;;;;29.63;13.80;;;;;;;6.71;62.87;102299.38;4894465;28;114954;-66
2024/01/13 09:39:21;;;;;;;30.13;14.07;;;;;;;6.72;62.85;102295.81;4908467;28;114910;-66
2024/01/13 09:41:53;;;;;;;30.60;13.60;;;;;;;6.73;63.01;102302.84;4893095;28;123327;-67
2024/01/13 09:44:26;;;;;;;26.08;13.15;;;;;;;6.74;63.34;102309.88;4907485;28;123806;-66
2024/01/13 09:47:00;;;;;;;29.67;14.15;;;;;;;6.74;62.91;102288.81;4911723;28;114332;-67
2024/01/13 09:49:31;;;;;;;29.55;14.02;;;;;;;6.76;63.19;102291.41;4911995;28;114151;-67
2024/01/13 09:52:05;;;;;;;;;;;;;;;6.75;62.87;102290.56;4900312;28;123790;-66
2024/01/13 09:54:43;;;;;;;29.83;13.07;;;;;;;6.76;62.97;102273.88;4906035;28;124671;-66
2024/01/13 09:57:39;;;;;;;26.23;13.23;;;;;;;6.74;62.94;102278.28;4879519;28;113267;-67
2024/01/13 10:00:06;;;;;;;;;;;;;;;6.74;63.01;102273.03;4893743;28;114363;-66
2024/01/13 10:02:39;;;;;;;28.85;13.02;;;;;;;6.74;62.91;102275.66;4881183;28;123774;-67
2024/01/13 10:05:07;;;;;;;28.08;13.63;;;;;;;6.74;62.77;102270.41;4895673;28;122957;-67
2024/01/13 10:07:43;;;;;;;25.70;13.23;;;;;;;6.75;62.95;102274.75;4897229;28;113927;-66
2024/01/13 10:10:11;;;;;;;30.77;14.35;;;;;;;6.76;63.06;102276.53;4899260;28;114551;-67
2024/01/13 10:12:38;;;;;;;29.25;14.07;;;;;;;6.77;62.70;102273.00;4889108;28;123518;-66
2024/01/13 10:15:18;;;;;;;29.55;14.50;;;;;;;6.79;63.33;102270.34;4902106;28;123991;-67
2024/01/13 10:17:45;;;;;;;26.90;13.60;;;;;;;6.81;63.10;102263.31;4898875;28;114187;-66
2024/01/13 10:20:13;;;;;;;31.30;14.00;;;;;;;6.83;63.04;102257.13;4894017;28;113322;-67
2024/01/13 10:22:42;;;;;;;28.05;13.32;;;;;;;6.83;62.76;102251.88;4896376;28;123207;-67
2024/01/13 10:25:09;;;;;;;29.10;13.95;;;;;;;6.86;62.92;102260.66;4898660;28;124324;-67
2024/01/13 10:27:38;;;;;;;30.73;14.07;;;;;;;6.87;62.89;102254.50;4902476;28;114856;-66
2024/01/13 10:30:07;;;;;;;30.40;14.20;;;;;;;6.89;63.04;102255.34;4897575;28;115036;-67
2024/01/13 10:32:35;;;;;;;29.45;14.27;;;;;;;6.89;63.01;102250.97;4886995;28;124043;-67
2024/01/13 10:35:05;;;;;;;26.10;13.13;;;;;;;6.89;63.08;102256.22;4897567;28;124206;-67
2024/01/13 10:37:35;;;;;;;30.85;14.02;;;;;;;6.90;63.01;102257.13;4909641;28;113981;-66
2024/01/13 10:40:03;;;;;;;26.15;13.68;;;;;;;6.91;63.12;102243.06;4911976;28;114693;-67
2024/01/13 10:42:40;;;;;;;27.83;13.93;;;;;;;6.91;62.75;102237.78;4888510;28;123347;-68
2024/01/13 10:45:14;;;;;;;28.35;13.40;;;;;;;6.91;63.13;102248.31;4876999;28;124090;-68
2024/01/13 10:47:52;;;;;;;28.13;13.80;;;;;;;6.91;63.04;102232.50;4890682;28;113761;-68
2024/01/13 10:50:20;;;;;;;29.00;13.55;;;;;;;6.92;63.16;102244.81;4904054;28;114462;-68
2024/01/13 10:53:10;;;;;;;26.25;12.48;;;;;;;6.92;63.08;102234.28;4902327;28;123754;-68
2024/01/13 10:55:39;;;;;;;25.67;12.85;;;;;;;6.94;62.87;102229.88;4895475;28;127118;-68
2024/01/13 10:58:06;;;;;;;27.25;13.10;;;;;;;6.94;62.98;102221.97;4889858;28;114141;-68
2024/01/13 11:00:34;;;;;;;29.95;14.38;;;;;;;6.94;62.73;102216.69;4891199;28;114114;-68
2024/01/13 11:03:03;;;;;;;26.52;13.70;;;;;;;6.94;63.12;102211.44;4903799;28;124047;-68
2024/01/13 11:05:33;;;;;;;29.23;13.65;;;;;;;6.95;63.02;102210.53;4908711;28;123958;-68
2024/01/13 11:08:03;;;;;;;27.40;13.13;;;;;;;6.96;63.03;102209.66;4903473;28;114322;-68
2024/01/13 11:10:40;;;;;;;28.08;13.60;;;;;;;6.96;63.01;102210.53;4872071;28;113084;-68
2024/01/13 11:13:19;;;;;;;28.67;13.82;;;;;;;6.97;62.85;102195.63;4886155;28;123953;-68
2024/01/13 11:15:56;;;;;;;26.38;13.52;;;;;;;6.99;63.09;102193.84;4894946;28;123269;-68
2024/01/13 11:18:26;;;;;;;27.00;13.43;;;;;;;7.00;62.94;102195.56;4892907;28;115504;-68
2024/01/13 11:21:01;;;;;;;27.00;13.50;;;;;;;6.99;63.16;102188.56;4904593;28;115341;-68